sensor_id;sensor_type;location;lat;lon;timestamp;pressure;altitude;pressure_sealevel;temperature;humidity
28004;BME280;15330;51.234;6.754;2022-07-05T00:02:04;101631.25;;;19.64;53.71
28004;BME280;15330;51.234;6.754;2022-07-05T00:04:30;101623.38;;;19.35;54.56
28004;BME280;15330;51.234;6.754;2022-07-05T00:06:55;101623.28;;;19.50;54.17
28004;BME280;15330;51.234;6.754;2022-07-05T00:09:39;101624.38;;;19.62;53.76
28004;BME280;15330;51.234;6.754;2022-07-05T00:12:05;101622.06;;;19.59;53.89
28004;BME280;15330;51.234;6.754;2022-07-05T00:14:30;101621.41;;;19.57;53.55
28004;BME280;15330;51.234;6.754;2022-07-05T00:16:55;101620.56;;;19.50;54.16
28004;BME280;15330;51.234;6.754;2022-07-05T00:19:21;101626.19;;;19.48;54.26
28004;BME280;15330;51.234;6.754;2022-07-05T00:21:46;101622.06;;;19.59;54.01
28004;BME280;15330;51.234;6.754;2022-07-05T00:24:11;101634.06;;;19.43;54.25
28004;BME280;15330;51.234;6.754;2022-07-05T00:26:37;101624.13;;;19.50;54.70
28004;BME280;15330;51.234;6.754;2022-07-05T00:29:02;101624.97;;;19.51;54.51
28004;BME280;15330;51.234;6.754;2022-07-05T00:31:28;101625.16;;;19.49;54.71
28004;BME280;15330;51.234;6.754;2022-07-05T00:33:53;101623.47;;;19.48;54.48
28004;BME280;15330;51.234;6.754;2022-07-05T00:36:18;101623.84;;;19.45;54.57
28004;BME280;15330;51.234;6.754;2022-07-05T00:38:44;101619.53;;;19.16;55.15
28004;BME280;15330;51.234;6.754;2022-07-05T00:41:09;101618.50;;;19.24;55.02
28004;BME280;15330;51.234;6.754;2022-07-05T00:43:34;101627.75;;;19.36;54.99
28004;BME280;15330;51.234;6.754;2022-07-05T00:46:00;101631.31;;;19.36;54.94
28004;BME280;15330;51.234;6.754;2022-07-05T00:48:25;101628.78;;;19.35;54.60
28004;BME280;15330;51.234;6.754;2022-07-05T00:50:51;101627.75;;;19.29;54.78
28004;BME280;15330;51.234;6.754;2022-07-05T00:53:16;101627.28;;;19.26;55.11
28004;BME280;15330;51.234;6.754;2022-07-05T00:55:43;101632.53;;;19.27;54.71
28004;BME280;15330;51.234;6.754;2022-07-05T00:58:09;101627.94;;;19.28;54.88
28004;BME280;15330;51.234;6.754;2022-07-05T01:00:35;101638.88;;;19.06;55.62
28004;BME280;15330;51.234;6.754;2022-07-05T01:03:00;101640.97;;;19.11;55.41
28004;BME280;15330;51.234;6.754;2022-07-05T01:05:27;101639.19;;;19.31;55.23
28004;BME280;15330;51.234;6.754;2022-07-05T01:07:54;101637.28;;;19.19;54.96
28004;BME280;15330;51.234;6.754;2022-07-05T01:10:20;101636.63;;;19.17;55.69
28004;BME280;15330;51.234;6.754;2022-07-05T01:12:45;101637.47;;;19.17;55.22
28004;BME280;15330;51.234;6.754;2022-07-05T01:15:11;101636.81;;;19.15;55.22
28004;BME280;15330;51.234;6.754;2022-07-05T01:17:37;101635.13;;;19.08;55.83
28004;BME280;15330;51.234;6.754;2022-07-05T01:20:06;101630.34;;;19.10;55.60
28004;BME280;15330;51.234;6.754;2022-07-05T01:22:48;101628.66;;;19.09;55.79
28004;BME280;15330;51.234;6.754;2022-07-05T01:25:15;101637.84;;;19.08;55.63
28004;BME280;15330;51.234;6.754;2022-07-05T01:27:40;101642.81;;;19.04;55.75
28004;BME280;15330;51.234;6.754;2022-07-05T01:30:07;101638.81;;;19.00;55.75
28004;BME280;15330;51.234;6.754;2022-07-05T01:32:33;101638.19;;;18.98;55.83
28004;BME280;15330;51.234;6.754;2022-07-05T01:34:58;101640.72;;;18.99;55.91
28004;BME280;15330;51.234;6.754;2022-07-05T01:37:24;101644.03;;;19.01;56.11
28004;BME280;15330;51.234;6.754;2022-07-05T01:39:51;101646.34;;;19.04;56.05
28004;BME280;15330;51.234;6.754;2022-07-05T01:42:17;101648.19;;;18.97;56.18
28004;BME280;15330;51.234;6.754;2022-07-05T01:44:42;101644.53;;;18.84;56.12
28004;BME280;15330;51.234;6.754;2022-07-05T01:47:08;101647.13;;;18.70;56.58
28004;BME280;15330;51.234;6.754;2022-07-05T01:49:38;101644.22;;;18.72;56.79
28004;BME280;15330;51.234;6.754;2022-07-05T01:52:10;101641.44;;;18.87;56.27
28004;BME280;15330;51.234;6.754;2022-07-05T01:54:36;101649.97;;;18.84;56.44
28004;BME280;15330;51.234;6.754;2022-07-05T01:57:04;101639.31;;;18.82;56.60
28004;BME280;15330;51.234;6.754;2022-07-05T01:59:31;101644.00;;;18.95;56.18
28004;BME280;15330;51.234;6.754;2022-07-05T02:01:57;101648.56;;;18.94;56.51
28004;BME280;15330;51.234;6.754;2022-07-05T02:04:23;101642.97;;;18.96;56.06
28004;BME280;15330;51.234;6.754;2022-07-05T02:06:50;101641.13;;;19.03;56.35
28004;BME280;15330;51.234;6.754;2022-07-05T02:09:15;101624.22;;;18.73;57.10
28004;BME280;15330;51.234;6.754;2022-07-05T02:11:41;101623.72;;;18.63;57.18
28004;BME280;15330;51.234;6.754;2022-07-05T02:14:06;101631.22;;;18.61;57.17
28004;BME280;15330;51.234;6.754;2022-07-05T02:16:32;101638.94;;;18.43;57.66
28004;BME280;15330;51.234;6.754;2022-07-05T02:18:57;101636.91;;;18.66;56.96
28004;BME280;15330;51.234;6.754;2022-07-05T02:21:22;101632.31;;;18.45;57.23
28004;BME280;15330;51.234;6.754;2022-07-05T02:23:48;101635.41;;;18.63;56.93
28004;BME280;15330;51.234;6.754;2022-07-05T02:26:14;101629.72;;;18.58;56.50
28004;BME280;15330;51.234;6.754;2022-07-05T02:28:39;101633.00;;;18.54;56.67
28004;BME280;15330;51.234;6.754;2022-07-05T02:31:05;101624.88;;;18.54;56.73
28004;BME280;15330;51.234;6.754;2022-07-05T02:33:30;101628.56;;;18.67;56.15
28004;BME280;15330;51.234;6.754;2022-07-05T02:35:56;101630.09;;;18.55;56.05
28004;BME280;15330;51.234;6.754;2022-07-05T02:38:21;101630.84;;;18.64;56.15
28004;BME280;15330;51.234;6.754;2022-07-05T02:40:48;101626.50;;;18.69;55.87
28004;BME280;15330;51.234;6.754;2022-07-05T02:43:13;101623.84;;;18.76;55.77
28004;BME280;15330;51.234;6.754;2022-07-05T02:45:38;101633.34;;;18.65;56.13
28004;BME280;15330;51.234;6.754;2022-07-05T02:48:04;101632.16;;;18.53;56.78
28004;BME280;15330;51.234;6.754;2022-07-05T02:50:29;101644.50;;;18.77;55.81
28004;BME280;15330;51.234;6.754;2022-07-05T02:52:55;101636.97;;;18.79;55.92
28004;BME280;15330;51.234;6.754;2022-07-05T02:55:20;101642.41;;;18.79;55.85
28004;BME280;15330;51.234;6.754;2022-07-05T02:57:45;101640.75;;;18.78;55.74
28004;BME280;15330;51.234;6.754;2022-07-05T03:00:11;101645.13;;;18.79;55.87
28004;BME280;15330;51.234;6.754;2022-07-05T03:02:37;101638.66;;;18.80;55.94
28004;BME280;15330;51.234;6.754;2022-07-05T03:05:02;101639.69;;;18.79;56.14
28004;BME280;15330;51.234;6.754;2022-07-05T03:07:28;101645.75;;;18.81;55.87
28004;BME280;15330;51.234;6.754;2022-07-05T03:09:53;101643.25;;;18.80;56.20
28004;BME280;15330;51.234;6.754;2022-07-05T03:12:18;101644.63;;;18.69;56.74
28004;BME280;15330;51.234;6.754;2022-07-05T03:14:44;101651.09;;;18.68;56.72
28004;BME280;15330;51.234;6.754;2022-07-05T03:17:09;101646.72;;;18.67;56.97
28004;BME280;15330;51.234;6.754;2022-07-05T03:19:35;101662.06;;;18.60;57.03
28004;BME280;15330;51.234;6.754;2022-07-05T03:22:00;101655.69;;;18.67;56.86
28004;BME280;15330;51.234;6.754;2022-07-05T03:24:25;101651.72;;;18.70;56.86
28004;BME280;15330;51.234;6.754;2022-07-05T03:26:51;101662.19;;;18.73;56.63
28004;BME280;15330;51.234;6.754;2022-07-05T03:29:16;101657.84;;;18.79;56.73
28004;BME280;15330;51.234;6.754;2022-07-05T03:31:41;101657.41;;;18.75;56.78
28004;BME280;15330;51.234;6.754;2022-07-05T03:34:07;101661.53;;;18.71;56.60
28004;BME280;15330;51.234;6.754;2022-07-05T03:36:32;101660.47;;;18.51;57.13
28004;BME280;15330;51.234;6.754;2022-07-05T03:38:58;101655.03;;;18.65;57.02
28004;BME280;15330;51.234;6.754;2022-07-05T03:41:23;101651.47;;;18.65;56.81
28004;BME280;15330;51.234;6.754;2022-07-05T03:43:48;101663.81;;;18.67;57.15
28004;BME280;15330;51.234;6.754;2022-07-05T03:46:14;101665.03;;;18.65;56.91
28004;BME280;15330;51.234;6.754;2022-07-05T03:48:39;101655.47;;;18.69;57.13
28004;BME280;15330;51.234;6.754;2022-07-05T03:51:05;101657.56;;;18.67;57.07
28004;BME280;15330;51.234;6.754;2022-07-05T03:53:30;101652.50;;;18.64;56.74
28004;BME280;15330;51.234;6.754;2022-07-05T03:55:55;101658.81;;;18.71;56.68
28004;BME280;15330;51.234;6.754;2022-07-05T03:58:21;101656.72;;;18.66;57.02
28004;BME280;15330;51.234;6.754;2022-07-05T04:00:46;101662.91;;;18.60;57.27
28004;BME280;15330;51.234;6.754;2022-07-05T04:03:11;101663.00;;;18.74;56.90
28004;BME280;15330;51.234;6.754;2022-07-05T04:05:37;101656.53;;;18.68;57.06
28004;BME280;15330;51.234;6.754;2022-07-05T04:08:02;101654.31;;;18.78;57.06
28004;BME280;15330;51.234;6.754;2022-07-05T04:10:28;101658.94;;;18.84;56.96
28004;BME280;15330;51.234;6.754;2022-07-05T04:12:54;101655.56;;;18.82;57.56
28004;BME280;15330;51.234;6.754;2022-07-05T04:15:19;101654.47;;;18.98;56.96
28004;BME280;15330;51.234;6.754;2022-07-05T04:20:13;101659.75;;;19.13;56.91
28004;BME280;15330;51.234;6.754;2022-07-05T04:22:38;101656.63;;;19.09;56.78
28004;BME280;15330;51.234;6.754;2022-07-05T04:25:04;101654.59;;;19.18;56.53
28004;BME280;15330;51.234;6.754;2022-07-05T04:27:43;101653.56;;;19.19;56.69
28004;BME280;15330;51.234;6.754;2022-07-05T04:30:09;101659.47;;;19.29;56.10
28004;BME280;15330;51.234;6.754;2022-07-05T04:32:34;101663.84;;;19.30;56.74
28004;BME280;15330;51.234;6.754;2022-07-05T04:35:00;101659.94;;;19.39;56.27
28004;BME280;15330;51.234;6.754;2022-07-05T04:37:25;101666.59;;;19.36;56.66
28004;BME280;15330;51.234;6.754;2022-07-05T04:39:51;101670.81;;;19.46;56.51
28004;BME280;15330;51.234;6.754;2022-07-05T04:42:16;101670.41;;;19.14;56.55
28004;BME280;15330;51.234;6.754;2022-07-05T04:44:41;101674.41;;;19.18;56.73
28004;BME280;15330;51.234;6.754;2022-07-05T04:47:07;101677.34;;;19.23;56.78
28004;BME280;15330;51.234;6.754;2022-07-05T04:49:32;101677.00;;;19.33;56.46
28004;BME280;15330;51.234;6.754;2022-07-05T04:51:57;101688.25;;;19.30;56.67
28004;BME280;15330;51.234;6.754;2022-07-05T04:54:23;101684.34;;;19.39;56.50
28004;BME280;15330;51.234;6.754;2022-07-05T04:56:48;101689.59;;;19.40;56.34
28004;BME280;15330;51.234;6.754;2022-07-05T04:59:13;101694.94;;;19.34;56.37
28004;BME280;15330;51.234;6.754;2022-07-05T05:01:39;101690.78;;;19.03;56.92
28004;BME280;15330;51.234;6.754;2022-07-05T05:04:04;101691.66;;;19.11;56.73
28004;BME280;15330;51.234;6.754;2022-07-05T05:06:29;101696.53;;;18.94;57.50
28004;BME280;15330;51.234;6.754;2022-07-05T05:08:55;101690.66;;;18.90;58.27
28004;BME280;15330;51.234;6.754;2022-07-05T05:11:20;101701.63;;;19.03;58.45
28004;BME280;15330;51.234;6.754;2022-07-05T05:13:45;101700.06;;;18.66;59.54
28004;BME280;15330;51.234;6.754;2022-07-05T05:16:12;101699.28;;;19.00;58.87
28004;BME280;15330;51.234;6.754;2022-07-05T05:18:37;101703.88;;;19.00;58.53
28004;BME280;15330;51.234;6.754;2022-07-05T05:21:03;101709.38;;;19.06;58.16
28004;BME280;15330;51.234;6.754;2022-07-05T05:23:29;101714.72;;;18.72;59.09
28004;BME280;15330;51.234;6.754;2022-07-05T05:25:54;101711.94;;;18.87;58.18
28004;BME280;15330;51.234;6.754;2022-07-05T05:28:20;101711.41;;;18.98;58.47
28004;BME280;15330;51.234;6.754;2022-07-05T05:30:46;101715.63;;;19.07;57.98
28004;BME280;15330;51.234;6.754;2022-07-05T05:33:12;101712.84;;;18.73;58.41
28004;BME280;15330;51.234;6.754;2022-07-05T05:35:37;101704.94;;;18.56;58.35
28004;BME280;15330;51.234;6.754;2022-07-05T05:38:03;101717.53;;;18.43;58.85
28004;BME280;15330;51.234;6.754;2022-07-05T05:40:28;101720.63;;;18.82;58.12
28004;BME280;15330;51.234;6.754;2022-07-05T05:42:54;101719.47;;;18.91;57.05
28004;BME280;15330;51.234;6.754;2022-07-05T05:45:21;101716.88;;;18.41;57.77
28004;BME280;15330;51.234;6.754;2022-07-05T05:47:52;101722.44;;;18.54;58.39
28004;BME280;15330;51.234;6.754;2022-07-05T05:50:22;101719.78;;;18.82;56.94
28004;BME280;15330;51.234;6.754;2022-07-05T05:52:48;101717.78;;;18.69;57.34
28004;BME280;15330;51.234;6.754;2022-07-05T05:55:13;101718.00;;;19.17;56.08
28004;BME280;15330;51.234;6.754;2022-07-05T05:57:39;101722.63;;;19.23;55.99
28004;BME280;15330;51.234;6.754;2022-07-05T06:00:06;101709.91;;;19.23;55.73
28004;BME280;15330;51.234;6.754;2022-07-05T06:02:31;101732.50;;;19.02;56.67
28004;BME280;15330;51.234;6.754;2022-07-05T06:04:57;101713.75;;;19.35;55.30
28004;BME280;15330;51.234;6.754;2022-07-05T06:07:23;101726.97;;;19.79;54.44
28004;BME280;15330;51.234;6.754;2022-07-05T06:09:48;101729.97;;;19.50;53.84
28004;BME280;15330;51.234;6.754;2022-07-05T06:12:14;101722.13;;;19.68;53.90
28004;BME280;15330;51.234;6.754;2022-07-05T06:14:39;101729.53;;;19.88;54.42
28004;BME280;15330;51.234;6.754;2022-07-05T06:17:04;101743.03;;;19.74;54.57
28004;BME280;15330;51.234;6.754;2022-07-05T06:19:30;101740.03;;;19.35;54.66
28004;BME280;15330;51.234;6.754;2022-07-05T06:21:55;101734.28;;;19.79;54.40
28004;BME280;15330;51.234;6.754;2022-07-05T06:24:20;101725.72;;;20.30;53.37
28004;BME280;15330;51.234;6.754;2022-07-05T06:26:46;101739.63;;;20.74;51.40
28004;BME280;15330;51.234;6.754;2022-07-05T06:29:11;101741.72;;;20.99;50.25
28004;BME280;15330;51.234;6.754;2022-07-05T06:31:36;101742.59;;;21.26;50.10
28004;BME280;15330;51.234;6.754;2022-07-05T06:34:02;101746.13;;;21.39;49.39
28004;BME280;15330;51.234;6.754;2022-07-05T06:36:27;101747.41;;;21.37;49.66
28004;BME280;15330;51.234;6.754;2022-07-05T06:38:52;101747.72;;;21.80;49.41
28004;BME280;15330;51.234;6.754;2022-07-05T06:41:18;101745.03;;;21.67;49.64
28004;BME280;15330;51.234;6.754;2022-07-05T06:43:43;101745.09;;;21.34;49.87
28004;BME280;15330;51.234;6.754;2022-07-05T06:46:08;101745.44;;;21.64;48.45
28004;BME280;15330;51.234;6.754;2022-07-05T06:48:34;101743.72;;;21.82;48.59
28004;BME280;15330;51.234;6.754;2022-07-05T06:51:00;101746.75;;;21.48;49.26
28004;BME280;15330;51.234;6.754;2022-07-05T06:53:25;101754.50;;;21.05;50.37
28004;BME280;15330;51.234;6.754;2022-07-05T06:55:51;101757.56;;;21.74;49.21
28004;BME280;15330;51.234;6.754;2022-07-05T06:58:16;101763.25;;;22.30;48.25
28004;BME280;15330;51.234;6.754;2022-07-05T07:00:43;101759.59;;;22.05;48.21
28004;BME280;15330;51.234;6.754;2022-07-05T07:03:08;101759.69;;;22.30;47.79
28004;BME280;15330;51.234;6.754;2022-07-05T07:05:34;101755.94;;;22.62;47.49
28004;BME280;15330;51.234;6.754;2022-07-05T07:07:59;101763.25;;;23.00;47.10
28004;BME280;15330;51.234;6.754;2022-07-05T07:10:42;101768.00;;;21.90;47.55
28004;BME280;15330;51.234;6.754;2022-07-05T07:13:08;101762.81;;;22.72;46.90
28004;BME280;15330;51.234;6.754;2022-07-05T07:15:33;101767.22;;;22.73;46.29
28004;BME280;15330;51.234;6.754;2022-07-05T07:17:59;101766.03;;;22.93;45.75
28004;BME280;15330;51.234;6.754;2022-07-05T07:20:26;101761.97;;;23.70;44.22
28004;BME280;15330;51.234;6.754;2022-07-05T07:22:52;101763.16;;;23.13;43.94
28004;BME280;15330;51.234;6.754;2022-07-05T07:25:18;101755.63;;;23.95;43.09
28004;BME280;15330;51.234;6.754;2022-07-05T07:27:49;101761.22;;;23.38;42.57
28004;BME280;15330;51.234;6.754;2022-07-05T07:30:17;101763.44;;;23.91;42.16
28004;BME280;15330;51.234;6.754;2022-07-05T07:32:44;101757.06;;;23.36;41.48
28004;BME280;15330;51.234;6.754;2022-07-05T07:35:10;101769.03;;;23.78;43.44
28004;BME280;15330;51.234;6.754;2022-07-05T07:37:36;101770.34;;;23.32;42.90
28004;BME280;15330;51.234;6.754;2022-07-05T07:40:03;101763.13;;;23.81;41.39
28004;BME280;15330;51.234;6.754;2022-07-05T07:42:29;101769.78;;;23.24;41.53
28004;BME280;15330;51.234;6.754;2022-07-05T07:44:55;101765.75;;;23.01;41.75
28004;BME280;15330;51.234;6.754;2022-07-05T07:47:20;101774.19;;;23.50;41.88
28004;BME280;15330;51.234;6.754;2022-07-05T07:49:46;101772.75;;;24.68;40.38
28004;BME280;15330;51.234;6.754;2022-07-05T07:52:11;101772.19;;;24.48;39.90
28004;BME280;15330;51.234;6.754;2022-07-05T07:54:37;101780.00;;;25.04;38.45
28004;BME280;15330;51.234;6.754;2022-07-05T07:57:03;101765.09;;;24.59;37.65
28004;BME280;15330;51.234;6.754;2022-07-05T07:59:31;101774.72;;;24.61;38.93
28004;BME280;15330;51.234;6.754;2022-07-05T08:01:56;101771.91;;;24.68;38.94
28004;BME280;15330;51.234;6.754;2022-07-05T08:04:22;101783.31;;;24.95;38.72
28004;BME280;15330;51.234;6.754;2022-07-05T08:06:47;101768.22;;;25.15;37.79
28004;BME280;15330;51.234;6.754;2022-07-05T08:09:13;101778.59;;;25.02;38.03
28004;BME280;15330;51.234;6.754;2022-07-05T08:11:39;101775.84;;;25.02;37.78
28004;BME280;15330;51.234;6.754;2022-07-05T08:14:05;101774.66;;;25.44;36.68
28004;BME280;15330;51.234;6.754;2022-07-05T08:16:31;101778.03;;;25.70;36.90
28004;BME280;15330;51.234;6.754;2022-07-05T08:18:56;101772.25;;;25.13;37.02
28004;BME280;15330;51.234;6.754;2022-07-05T08:21:40;101784.19;;;25.18;36.51
28004;BME280;15330;51.234;6.754;2022-07-05T08:24:11;101776.94;;;24.82;37.38
28004;BME280;15330;51.234;6.754;2022-07-05T08:26:37;101775.72;;;24.67;37.01
28004;BME280;15330;51.234;6.754;2022-07-05T08:29:07;101771.31;;;23.81;38.25
28004;BME280;15330;51.234;6.754;2022-07-05T08:31:40;101778.81;;;24.70;37.97
28004;BME280;15330;51.234;6.754;2022-07-05T08:34:06;101768.97;;;25.69;36.42
28004;BME280;15330;51.234;6.754;2022-07-05T08:36:31;101759.03;;;24.98;36.76
28004;BME280;15330;51.234;6.754;2022-07-05T08:38:57;101773.22;;;24.35;35.96
28004;BME280;15330;51.234;6.754;2022-07-05T08:41:23;101777.75;;;25.59;35.04
28004;BME280;15330;51.234;6.754;2022-07-05T08:43:50;101776.13;;;26.22;35.09
28004;BME280;15330;51.234;6.754;2022-07-05T08:46:17;101774.09;;;25.31;34.02
28004;BME280;15330;51.234;6.754;2022-07-05T08:48:44;101772.78;;;25.21;34.62
28004;BME280;15330;51.234;6.754;2022-07-05T08:51:13;101771.78;;;25.16;34.09
28004;BME280;15330;51.234;6.754;2022-07-05T08:53:40;101766.00;;;24.52;34.98
28004;BME280;15330;51.234;6.754;2022-07-05T08:56:10;101774.28;;;24.64;35.68
28004;BME280;15330;51.234;6.754;2022-07-05T08:58:36;101778.94;;;25.17;35.49
28004;BME280;15330;51.234;6.754;2022-07-05T09:01:02;101768.34;;;25.79;35.40
28004;BME280;15330;51.234;6.754;2022-07-05T09:03:38;101777.66;;;26.58;34.67
28004;BME280;15330;51.234;6.754;2022-07-05T09:06:07;101774.38;;;26.73;34.15
28004;BME280;15330;51.234;6.754;2022-07-05T09:08:35;101777.94;;;27.01;32.70
28004;BME280;15330;51.234;6.754;2022-07-05T09:11:08;101775.50;;;27.22;32.27
28004;BME280;15330;51.234;6.754;2022-07-05T09:13:36;101779.34;;;27.21;32.79
28004;BME280;15330;51.234;6.754;2022-07-05T09:16:02;101779.84;;;26.56;32.06
28004;BME280;15330;51.234;6.754;2022-07-05T09:18:48;101773.50;;;25.52;33.20
28004;BME280;15330;51.234;6.754;2022-07-05T09:21:25;101770.38;;;27.25;32.41
28004;BME280;15330;51.234;6.754;2022-07-05T09:23:57;101776.59;;;27.21;32.16
28004;BME280;15330;51.234;6.754;2022-07-05T09:26:44;101778.66;;;27.64;32.13
28004;BME280;15330;51.234;6.754;2022-07-05T09:29:11;101781.47;;;28.29;31.84
28004;BME280;15330;51.234;6.754;2022-07-05T09:31:39;101790.28;;;26.99;32.68
28004;BME280;15330;51.234;6.754;2022-07-05T09:34:12;101786.38;;;26.26;33.29
28004;BME280;15330;51.234;6.754;2022-07-05T09:37:00;101775.16;;;25.76;33.86
28004;BME280;15330;51.234;6.754;2022-07-05T09:42:17;101782.91;;;25.68;34.83
28004;BME280;15330;51.234;6.754;2022-07-05T09:44:50;101782.31;;;25.54;35.07
28004;BME280;15330;51.234;6.754;2022-07-05T09:47:18;101781.16;;;26.13;33.68
28004;BME280;15330;51.234;6.754;2022-07-05T09:49:45;101779.16;;;25.97;34.08
28004;BME280;15330;51.234;6.754;2022-07-05T09:52:26;101784.91;;;25.49;35.26
28004;BME280;15330;51.234;6.754;2022-07-05T09:55:05;101776.56;;;25.20;35.48
28004;BME280;15330;51.234;6.754;2022-07-05T09:57:31;101781.59;;;24.22;36.66
28004;BME280;15330;51.234;6.754;2022-07-05T10:00:03;101796.09;;;25.24;36.92
28004;BME280;15330;51.234;6.754;2022-07-05T10:02:38;101777.91;;;25.53;36.24
28004;BME280;15330;51.234;6.754;2022-07-05T10:05:08;101781.16;;;26.13;35.35
28004;BME280;15330;51.234;6.754;2022-07-05T10:07:35;101782.75;;;26.38;33.83
28004;BME280;15330;51.234;6.754;2022-07-05T10:10:02;101780.34;;;27.15;33.06
28004;BME280;15330;51.234;6.754;2022-07-05T10:12:28;101779.94;;;27.39;31.48
28004;BME280;15330;51.234;6.754;2022-07-05T10:14:57;101784.44;;;27.12;30.95
28004;BME280;15330;51.234;6.754;2022-07-05T10:17:26;101779.44;;;25.95;30.19
28004;BME280;15330;51.234;6.754;2022-07-05T10:19:54;101779.09;;;25.22;31.34
28004;BME280;15330;51.234;6.754;2022-07-05T10:22:21;101781.84;;;25.69;31.34
28004;BME280;15330;51.234;6.754;2022-07-05T10:24:47;101778.13;;;25.40;30.52
28004;BME280;15330;51.234;6.754;2022-07-05T10:27:13;101778.00;;;24.70;31.21
28004;BME280;15330;51.234;6.754;2022-07-05T10:29:40;101775.97;;;25.18;30.91
28004;BME280;15330;51.234;6.754;2022-07-05T10:32:07;101780.38;;;25.19;31.90
28004;BME280;15330;51.234;6.754;2022-07-05T10:34:35;101779.84;;;26.16;30.58
28004;BME280;15330;51.234;6.754;2022-07-05T10:37:00;101770.97;;;25.85;30.37
28004;BME280;15330;51.234;6.754;2022-07-05T10:39:26;101793.50;;;26.39;29.77
28004;BME280;15330;51.234;6.754;2022-07-05T10:41:53;101772.91;;;25.85;30.11
28004;BME280;15330;51.234;6.754;2022-07-05T10:44:34;101771.28;;;26.69;30.06
28004;BME280;15330;51.234;6.754;2022-07-05T10:47:17;101770.88;;;25.80;30.47
28004;BME280;15330;51.234;6.754;2022-07-05T10:50:00;101770.50;;;25.53;30.74
28004;BME280;15330;51.234;6.754;2022-07-05T10:52:26;101769.56;;;25.83;31.65
28004;BME280;15330;51.234;6.754;2022-07-05T10:57:42;101776.81;;;25.19;32.54
28004;BME280;15330;51.234;6.754;2022-07-05T11:00:09;101767.28;;;25.10;33.21
28004;BME280;15330;51.234;6.754;2022-07-05T11:02:35;101769.78;;;25.11;32.81
28004;BME280;15330;51.234;6.754;2022-07-05T11:05:01;101770.38;;;25.02;33.68
28004;BME280;15330;51.234;6.754;2022-07-05T11:10:24;101768.84;;;24.76;33.59
28004;BME280;15330;51.234;6.754;2022-07-05T11:12:49;101778.03;;;26.21;32.88
28004;BME280;15330;51.234;6.754;2022-07-05T11:15:14;101764.91;;;26.35;32.41
28004;BME280;15330;51.234;6.754;2022-07-05T11:17:40;101756.09;;;25.35;32.66
28004;BME280;15330;51.234;6.754;2022-07-05T11:23:09;101775.00;;;25.13;30.67
28004;BME280;15330;51.234;6.754;2022-07-05T11:25:44;101777.03;;;25.06;31.11
28004;BME280;15330;51.234;6.754;2022-07-05T11:28:13;101775.84;;;24.42;32.20
28004;BME280;15330;51.234;6.754;2022-07-05T11:30:51;101771.13;;;24.49;31.93
28004;BME280;15330;51.234;6.754;2022-07-05T11:33:31;101775.59;;;24.73;32.78
28004;BME280;15330;51.234;6.754;2022-07-05T11:35:57;101774.56;;;24.44;32.93
28004;BME280;15330;51.234;6.754;2022-07-05T11:38:23;101768.97;;;24.81;32.95
28004;BME280;15330;51.234;6.754;2022-07-05T11:40:48;101757.84;;;24.94;32.31
28004;BME280;15330;51.234;6.754;2022-07-05T11:43:14;101761.19;;;24.96;32.86
28004;BME280;15330;51.234;6.754;2022-07-05T11:45:39;101743.00;;;25.60;32.07
28004;BME280;15330;51.234;6.754;2022-07-05T11:48:05;101747.09;;;26.66;32.00
28004;BME280;15330;51.234;6.754;2022-07-05T11:50:33;101753.75;;;26.70;29.85
28004;BME280;15330;51.234;6.754;2022-07-05T11:53:00;101745.25;;;25.40;31.51
28004;BME280;15330;51.234;6.754;2022-07-05T11:55:27;101742.75;;;25.85;31.07
28004;BME280;15330;51.234;6.754;2022-07-05T11:57:54;101730.34;;;25.47;31.48
28004;BME280;15330;51.234;6.754;2022-07-05T12:00:32;101731.16;;;25.94;30.75
28004;BME280;15330;51.234;6.754;2022-07-05T12:02:59;101736.44;;;25.49;32.49
28004;BME280;15330;51.234;6.754;2022-07-05T12:05:29;101731.47;;;25.98;32.16
28004;BME280;15330;51.234;6.754;2022-07-05T12:07:55;101738.00;;;26.09;32.19
28004;BME280;15330;51.234;6.754;2022-07-05T12:10:20;101738.38;;;25.61;33.16
28004;BME280;15330;51.234;6.754;2022-07-05T12:13:08;101732.50;;;25.69;32.89
28004;BME280;15330;51.234;6.754;2022-07-05T12:15:35;101733.31;;;26.33;31.91
28004;BME280;15330;51.234;6.754;2022-07-05T12:18:02;101732.84;;;26.52;31.81
28004;BME280;15330;51.234;6.754;2022-07-05T12:20:30;101726.88;;;26.72;30.94
28004;BME280;15330;51.234;6.754;2022-07-05T12:22:56;101720.69;;;26.48;32.12
28004;BME280;15330;51.234;6.754;2022-07-05T12:25:24;101722.50;;;26.14;30.56
28004;BME280;15330;51.234;6.754;2022-07-05T12:27:51;101730.66;;;25.98;31.65
28004;BME280;15330;51.234;6.754;2022-07-05T12:30:18;101723.22;;;25.46;31.79
28004;BME280;15330;51.234;6.754;2022-07-05T12:35:36;101734.78;;;25.25;32.08
28004;BME280;15330;51.234;6.754;2022-07-05T12:38:22;101725.00;;;25.29;31.48
28004;BME280;15330;51.234;6.754;2022-07-05T12:40:58;101720.63;;;26.03;30.99
28004;BME280;15330;51.234;6.754;2022-07-05T12:43:25;101718.59;;;25.99;31.14
28004;BME280;15330;51.234;6.754;2022-07-05T12:46:04;101727.50;;;25.66;31.58
28004;BME280;15330;51.234;6.754;2022-07-05T12:50:59;101727.75;;;25.29;32.37
28004;BME280;15330;51.234;6.754;2022-07-05T12:53:26;101720.75;;;25.96;31.21
28004;BME280;15330;51.234;6.754;2022-07-05T12:56:11;101723.59;;;26.58;31.27
28004;BME280;15330;51.234;6.754;2022-07-05T13:01:21;101726.31;;;25.03;31.86
28004;BME280;15330;51.234;6.754;2022-07-05T13:04:13;101715.81;;;25.70;31.59
28004;BME280;15330;51.234;6.754;2022-07-05T13:09:15;101715.34;;;26.42;30.61
28004;BME280;15330;51.234;6.754;2022-07-05T13:11:41;101706.75;;;25.58;31.32
28004;BME280;15330;51.234;6.754;2022-07-05T13:14:06;101720.19;;;25.94;32.12
28004;BME280;15330;51.234;6.754;2022-07-05T13:16:32;101710.88;;;25.95;31.64